Time;durP1;ratioP1;P1;durP2;ratioP2;P2;SDS_P1;SDS_P2;PMS_P1;PMS_P2;Temp;Humidity;BMP_temperature;BMP_pressure;BME280_temperature;BME280_humidity;BME280_pressure;Samples;Min_cycle;Max_cycle;Signal;HPM_P1;HPM_P2
2021/12/03 00:01:11;;;;;;;12.18;3.80;;;;;;;2.12;80.04;101040.28;5093255;28;20024;-62
2021/12/03 00:03:38;;;;;;;7.88;4.60;;;;;;;2.15;79.89;101046.56;5093322;28;20024;-63
2021/12/03 00:06:04;;;;;;;8.48;4.43;;;;;;;2.20;79.75;101042.44;5074289;28;20438;-62
2021/12/03 00:08:29;;;;;;;14.20;5.25;;;;;;;2.21;80.11;101046.81;5093552;28;20026;-62
2021/12/03 00:10:59;;;;;;;8.55;4.40;;;;;;;2.20;79.74;101046.78;5093460;28;20036;-62
2021/12/03 00:13:26;;;;;;;8.50;4.78;;;;;;;2.14;80.07;101049.97;5093216;28;20032;-62
2021/12/03 00:15:53;;;;;;;9.43;5.38;;;;;;;2.12;80.02;101046.41;5093267;28;20027;-62
2021/12/03 00:18:19;;;;;;;8.75;5.45;;;;;;;2.12;80.35;101046.41;5093216;28;20081;-63
2021/12/03 00:20:45;;;;;;;11.55;5.20;;;;;;;2.14;80.52;101039.56;5093357;28;20036;-63
2021/12/03 00:23:10;;;;;;;9.70;5.47;;;;;;;2.10;81.22;101042.84;5093155;28;20387;-62
2021/12/03 00:25:36;;;;;;;11.90;5.70;;;;;;;2.18;80.17;101048.38;5093321;28;20020;-62
2021/12/03 00:28:03;;;;;;;11.18;5.65;;;;;;;2.20;80.49;101054.59;5093176;28;20024;-62
2021/12/03 00:30:28;;;;;;;10.85;5.93;;;;;;;2.20;80.66;101042.44;5093187;28;20035;-62
2021/12/03 00:32:54;;;;;;;10.43;5.53;;;;;;;2.25;80.96;101048.75;5093240;28;20032;-62
2021/12/03 00:35:20;;;;;;;10.07;5.90;;;;;;;2.29;80.61;101048.91;5092561;28;20486;-62
2021/12/03 00:37:48;;;;;;;12.18;5.72;;;;;;;2.33;80.94;101050.84;5093093;28;20024;-62
2021/12/03 00:40:18;;;;;;;10.95;6.57;;;;;;;2.39;80.94;101054.63;5093430;28;20032;-62
2021/12/03 00:42:44;;;;;;;11.50;6.13;;;;;;;2.41;80.15;101050.38;5092795;28;20447;-62
2021/12/03 00:45:12;;;;;;;13.25;6.45;;;;;;;2.41;80.24;101050.38;5093187;28;20024;-62
2021/12/03 00:47:39;;;;;;;13.50;6.30;;;;;;;2.36;80.44;101051.88;5092982;28;20016;-62
2021/12/03 00:50:06;;;;;;;14.25;6.03;;;;;;;2.33;81.06;101056.06;5092847;28;20063;-62
2021/12/03 00:52:32;;;;;;;12.90;6.15;;;;;;;2.28;80.92;101054.97;5092987;28;20032;-62
2021/12/03 00:54:57;;;;;;;15.05;6.95;;;;;;;2.23;80.00;101036.50;5093019;28;20020;-62
2021/12/03 00:57:23;;;;;;;14.57;6.90;;;;;;;2.26;80.58;101053.16;5074842;28;20243;-62
2021/12/03 00:59:48;;;;;;;13.10;7.22;;;;;;;2.20;80.69;101047.66;5092876;28;20024;-62
2021/12/03 01:02:14;;;;;;;16.63;7.10;;;;;;;2.20;81.13;101060.69;5092836;28;20074;-62
2021/12/03 01:04:40;;;;;;;14.00;6.85;;;;;;;2.19;80.84;101058.91;5092666;28;20051;-62
2021/12/03 01:07:08;;;;;;;14.82;7.20;;;;;;;2.19;80.66;101055.41;5093034;28;20526;-63
2021/12/03 01:09:34;;;;;;;15.32;7.75;;;;;;;2.17;80.88;101065.75;5092815;28;20064;-63
2021/12/03 01:11:59;;;;;;;15.82;7.57;;;;;;;2.13;81.35;101062.91;5093105;28;20104;-62
2021/12/03 01:14:25;;;;;;;13.15;7.43;;;;;;;2.09;81.01;101055.78;5092780;28;20032;-62
2021/12/03 01:16:51;;;;;;;16.02;8.05;;;;;;;2.08;81.49;101072.25;5092741;28;20069;-62
2021/12/03 01:19:17;;;;;;;14.73;8.13;;;;;;;2.07;81.68;101071.34;5092585;28;20475;-62
2021/12/03 01:21:43;;;;;;;16.08;8.68;;;;;;;2.03;81.86;101063.31;5092278;28;20128;-62
2021/12/03 01:24:08;;;;;;;18.48;8.85;;;;;;;1.91;81.80;101064.50;5092577;28;20046;-63
2021/12/03 01:26:35;;;;;;;17.33;9.15;;;;;;;1.93;82.15;101075.91;5092865;28;20033;-62
2021/12/03 01:29:00;;;;;;;17.77;10.38;;;;;;;1.96;82.34;101070.81;5092588;28;20020;-62
2021/12/03 01:31:26;;;;;;;19.20;10.93;;;;;;;1.92;82.59;101067.97;5092857;28;20043;-62
2021/12/03 01:33:51;;;;;;;23.13;11.02;;;;;;;1.93;83.06;101065.47;5092999;28;20028;-62
2021/12/03 01:36:17;;;;;;;23.73;12.00;;;;;;;1.92;83.05;101065.38;5092375;28;20051;-62
2021/12/03 01:38:43;;;;;;;22.48;12.38;;;;;;;1.87;82.96;101067.75;5092455;28;20497;-62
2021/12/03 01:41:10;;;;;;;18.30;11.07;;;;;;;1.91;83.18;101072.31;5092657;28;20021;-62
2021/12/03 01:43:35;;;;;;;17.65;10.93;;;;;;;1.93;82.60;101069.81;5092440;28;20024;-62
2021/12/03 01:46:07;;;;;;;17.92;10.68;;;;;;;1.90;83.09;101065.31;5092728;28;20031;-62
2021/12/03 01:48:33;;;;;;;18.95;10.38;;;;;;;1.90;82.79;101061.81;5096422;28;20035;-62
2021/12/03 01:50:59;;;;;;;18.23;10.02;;;;;;;1.92;83.02;101068.88;5095882;28;20036;-62
2021/12/03 01:53:30;;;;;;;17.00;9.65;;;;;;;1.93;82.88;101059.38;5095833;28;20024;-62
2021/12/03 01:55:59;;;;;;;18.02;9.48;;;;;;;1.93;82.79;101059.38;5096088;28;20020;-62
2021/12/03 01:58:25;;;;;;;19.05;9.27;;;;;;;1.88;83.12;101055.63;5095641;28;20404;-62
2021/12/03 02:00:55;;;;;;;14.73;8.75;;;;;;;1.88;83.28;101056.50;5095707;28;20020;-62
2021/12/03 02:03:27;;;;;;;16.95;9.18;;;;;;;1.94;82.81;101053.34;5095674;28;20024;-62
2021/12/03 02:05:53;;;;;;;15.95;9.85;;;;;;;1.94;82.88;101062.03;5096009;28;20146;-62
2021/12/03 02:08:19;;;;;;;20.73;9.43;;;;;;;1.92;83.15;101062.78;5095676;28;20431;-62
2021/12/03 02:10:45;;;;;;;17.45;9.65;;;;;;;1.96;82.80;101060.38;5095632;28;20028;-62
2021/12/03 02:13:12;;;;;;;19.35;9.35;;;;;;;1.93;83.20;101062.88;5095535;28;20394;-62
2021/12/03 02:15:38;;;;;;;18.50;9.88;;;;;;;1.88;83.31;101053.03;5095712;28;20024;-62
2021/12/03 02:18:07;;;;;;;16.92;10.25;;;;;;;1.86;83.68;101065.09;5095523;28;20028;-63
2021/12/03 02:20:32;;;;;;;24.58;12.35;;;;;;;1.81;83.98;101069.19;5095439;28;20020;-62
2021/12/03 02:22:58;;;;;;;29.45;13.43;;;;;;;1.73;84.96;101077.50;5095300;28;20486;-62
2021/12/03 02:25:26;;;;;;;29.27;14.23;;;;;;;1.81;84.89;101070.09;5095379;28;20032;-62
2021/12/03 02:27:55;;;;;;;31.05;14.75;;;;;;;1.80;85.22;101062.16;5077056;28;20149;-62
2021/12/03 02:30:22;;;;;;;41.78;18.15;;;;;;;1.78;85.46;101066.44;5095235;28;20042;-62
2021/12/03 02:32:49;;;;;;;38.25;18.05;;;;;;;1.72;85.30;101062.69;5095103;28;20479;-62
2021/12/03 02:35:16;;;;;;;47.67;19.35;;;;;;;1.70;85.84;101047.81;5095450;28;20042;-62
2021/12/03 02:37:42;;;;;;;49.97;19.42;;;;;;;1.71;85.79;101054.78;5095229;28;20036;-62
2021/12/03 02:40:11;;;;;;;50.00;19.85;;;;;;;1.73;85.90;101056.66;5095144;28;20023;-62
2021/12/03 02:42:37;;;;;;;49.40;20.58;;;;;;;1.76;85.38;101058.53;5095051;28;20036;-62
2021/12/03 02:45:06;;;;;;;51.58;19.70;;;;;;;1.80;85.58;101054.34;5094982;28;20398;-62
2021/12/03 02:47:32;;;;;;;46.83;19.92;;;;;;;1.81;85.93;101046.63;5094726;28;20032;-62
2021/12/03 02:49:57;;;;;;;50.58;21.40;;;;;;;1.84;85.55;101048.47;5094866;28;20489;-62
2021/12/03 02:52:23;;;;;;;50.00;20.58;;;;;;;1.88;85.86;101050.41;5094868;28;20039;-62
2021/12/03 02:54:49;;;;;;;43.15;20.23;;;;;;;1.86;85.68;101057.28;5094768;28;20107;-62
2021/12/03 02:57:15;;;;;;;40.42;18.67;;;;;;;1.86;85.82;101057.28;5094378;28;20028;-63
2021/12/03 02:59:40;;;;;;;43.67;19.65;;;;;;;1.83;85.90;101046.69;5094967;28;20024;-62
2021/12/03 03:02:06;;;;;;;37.65;17.40;;;;;;;1.84;86.07;101056.28;5094109;28;20031;-63
2021/12/03 03:04:31;;;;;;;41.50;19.45;;;;;;;1.77;86.04;101036.88;5093761;28;20107;-62
2021/12/03 03:06:57;;;;;;;40.58;18.65;;;;;;;1.84;85.97;101045.88;5094514;28;20028;-62
2021/12/03 03:09:22;;;;;;;39.15;18.33;;;;;;;1.86;86.43;101044.25;5094718;28;20478;-62
2021/12/03 03:11:48;;;;;;;37.38;18.25;;;;;;;1.86;86.69;101045.13;5094268;28;20020;-61
2021/12/03 03:14:14;;;;;;;35.30;16.65;;;;;;;1.90;86.04;101040.97;5094276;28;20560;-63
2021/12/03 03:16:40;;;;;;;35.65;16.85;;;;;;;1.89;86.13;101037.47;5094419;28;20024;-62
2021/12/03 03:19:14;;;;;;;32.95;16.00;;;;;;;1.87;85.99;101036.50;5094227;28;20433;-62
2021/12/03 03:21:39;;;;;;;37.88;17.45;;;;;;;1.89;85.81;101034.00;5094018;28;20032;-62
2021/12/03 03:24:07;;;;;;;30.58;15.73;;;;;;;1.91;85.75;101034.94;5094196;28;20046;-63
2021/12/03 03:26:35;;;;;;;40.25;17.00;;;;;;;1.89;86.30;101039.19;5094164;28;20077;-62
2021/12/03 03:29:01;;;;;;;31.92;15.85;;;;;;;1.85;86.50;101038.16;5094046;28;20024;-63
2021/12/03 03:31:26;;;;;;;33.97;16.13;;;;;;;1.80;85.99;101031.81;5093935;28;20028;-62
2021/12/03 03:33:52;;;;;;;34.17;16.60;;;;;;;1.83;86.34;101044.97;5093866;28;20024;-63
2021/12/03 03:36:17;;;;;;;39.08;16.58;;;;;;;1.82;86.71;101044.91;5093990;28;20024;-62
2021/12/03 03:38:43;;;;;;;36.85;17.77;;;;;;;1.82;87.12;101047.53;5094064;28;20063;-62
2021/12/03 03:41:08;;;;;;;38.53;18.35;;;;;;;1.79;86.70;101040.44;5093772;28;20032;-62
2021/12/03 03:43:34;;;;;;;39.35;18.55;;;;;;;1.73;87.26;101043.66;5093806;28;20031;-61
2021/12/03 03:46:00;;;;;;;38.38;18.13;;;;;;;1.75;87.46;101049.81;5093839;28;20035;-61
2021/12/03 03:48:25;;;;;;;38.22;18.15;;;;;;;1.76;87.47;101053.34;5093914;28;20149;-61
2021/12/03 03:50:51;;;;;;;45.92;20.38;;;;;;;1.77;87.38;101052.50;5093735;28;20059;-63
2021/12/03 03:53:17;;;;;;;46.28;20.75;;;;;;;1.72;87.57;101039.25;5093752;28;20048;-61
2021/12/03 03:55:42;;;;;;;40.67;18.77;;;;;;;1.70;87.94;101026.97;5093730;28;20107;-61
2021/12/03 03:58:09;;;;;;;44.08;19.23;;;;;;;1.69;87.96;101036.50;5093522;28;20107;-61
2021/12/03 04:00:38;;;;;;;41.50;20.08;;;;;;;1.65;88.40;101036.28;5093627;28;20467;-61
2021/12/03 04:03:04;;;;;;;44.15;20.58;;;;;;;1.64;88.30;101031.88;5093535;28;20020;-61
2021/12/03 04:05:29;;;;;;;41.35;19.42;;;;;;;1.63;88.35;101027.50;5093596;28;20031;-61
2021/12/03 04:07:55;;;;;;;44.08;20.25;;;;;;;1.62;88.50;101021.38;5093753;28;20114;-61
2021/12/03 04:10:20;;;;;;;44.75;21.10;;;;;;;1.62;88.46;101020.47;5092669;28;20030;-61
2021/12/03 04:12:46;;;;;;;54.00;20.63;;;;;;;1.68;88.49;101020.81;5093593;28;20032;-61
2021/12/03 04:15:12;;;;;;;52.63;21.52;;;;;;;1.65;88.41;101018.03;5093425;28;20108;-61
2021/12/03 04:17:38;;;;;;;51.15;21.90;;;;;;;1.65;88.87;101010.22;5093349;28;20095;-61
2021/12/03 04:20:06;;;;;;;50.05;21.27;;;;;;;1.65;89.20;101011.13;5093133;28;20032;-61
2021/12/03 04:22:32;;;;;;;50.05;20.92;;;;;;;1.60;88.90;101006.50;5093081;28;20040;-61
2021/12/03 04:24:59;;;;;;;46.83;21.30;;;;;;;1.68;88.24;101005.19;5093207;28;20032;-61
2021/12/03 04:27:24;;;;;;;48.08;19.13;;;;;;;1.71;88.52;101006.22;5093164;28;20024;-62
2021/12/03 04:29:50;;;;;;;44.05;18.90;;;;;;;1.73;88.44;101012.38;5093353;28;20050;-61
2021/12/03 04:32:17;;;;;;;47.95;18.23;;;;;;;1.77;88.55;101015.16;5093296;28;20047;-61
2021/12/03 04:34:44;;;;;;;38.75;18.25;;;;;;;1.77;88.64;101013.44;5092980;28;20359;-61
2021/12/03 04:37:09;;;;;;;38.83;17.95;;;;;;;1.78;88.10;101015.22;5093265;28;20020;-61
2021/12/03 04:39:35;;;;;;;36.42;17.30;;;;;;;1.75;88.65;101015.94;5092992;28;20032;-61
2021/12/03 04:42:00;;;;;;;39.80;18.02;;;;;;;1.78;88.73;101023.03;5093038;28;20108;-61
2021/12/03 04:44:26;;;;;;;41.13;17.92;;;;;;;1.79;88.42;101026.53;5092878;28;20470;-61
2021/12/03 04:46:51;;;;;;;38.72;17.60;;;;;;;1.88;88.53;101026.97;5093072;28;20051;-61
2021/12/03 04:49:17;;;;;;;38.95;18.45;;;;;;;1.89;88.72;101010.53;5092952;28;20059;-62
2021/12/03 04:51:42;;;;;;;37.78;17.15;;;;;;;1.93;87.72;101012.47;5092857;28;20120;-61
2021/12/03 04:54:08;;;;;;;41.00;17.90;;;;;;;1.86;88.68;101021.69;5074856;28;20035;-61
2021/12/03 04:56:34;;;;;;;39.70;19.23;;;;;;;1.86;88.47;101021.69;5093008;28;20020;-61
2021/12/03 04:58:59;;;;;;;42.20;19.08;;;;;;;1.84;89.02;101027.63;5093117;28;20494;-61
2021/12/03 05:01:24;;;;;;;38.67;18.63;;;;;;;1.84;88.55;101010.31;5092850;28;20374;-62
2021/12/03 05:03:50;;;;;;;45.35;18.95;;;;;;;1.86;88.73;101013.88;5092915;28;20028;-61
2021/12/03 05:06:17;;;;;;;36.13;17.10;;;;;;;1.80;88.19;100987.53;5092644;28;20374;-62
2021/12/03 05:08:48;;;;;;;37.42;18.48;;;;;;;1.85;88.73;101000.78;5092930;28;20034;-61
2021/12/03 05:11:13;;;;;;;37.78;17.67;;;;;;;1.81;88.75;100996.25;5093133;28;20028;-61
2021/12/03 05:13:40;;;;;;;38.65;17.77;;;;;;;1.80;88.78;100989.22;5092700;28;20024;-62
2021/12/03 05:16:06;;;;;;;33.70;16.88;;;;;;;1.82;88.66;100995.41;5092694;28;20047;-61
2021/12/03 05:18:32;;;;;;;32.50;15.32;;;;;;;1.80;89.14;100990.16;5092729;28;20378;-61
2021/12/03 05:21:00;;;;;;;36.25;16.73;;;;;;;1.77;89.13;100978.69;5093966;28;20355;-62
2021/12/03 05:23:28;;;;;;;30.48;15.30;;;;;;;1.84;88.57;100989.47;5096522;28;20402;-62
2021/12/03 05:25:54;;;;;;;30.65;15.45;;;;;;;1.84;88.25;100976.44;5096557;28;20024;-62
2021/12/03 05:28:20;;;;;;;26.98;13.93;;;;;;;1.82;88.93;100982.38;5096369;28;20085;-62
2021/12/03 05:30:46;;;;;;;30.98;13.88;;;;;;;1.82;89.08;100978.06;5096378;28;20493;-62
2021/12/03 05:33:11;;;;;;;32.97;15.30;;;;;;;1.87;87.99;100980.91;5096426;28;20028;-62
2021/12/03 05:35:37;;;;;;;22.38;11.85;;;;;;;1.85;88.59;100985.16;5096105;28;20056;-62
2021/12/03 05:38:03;;;;;;;26.13;11.80;;;;;;;1.86;88.44;100981.72;5096294;28;20035;-62
2021/12/03 05:40:29;;;;;;;26.42;12.32;;;;;;;1.86;88.29;100987.81;5096261;28;20016;-61
2021/12/03 05:42:55;;;;;;;20.67;11.93;;;;;;;1.82;88.40;100991.09;5096259;28;20051;-61
2021/12/03 05:45:24;;;;;;;16.63;8.82;;;;;;;1.83;88.43;100995.47;5096202;28;20024;-61
2021/12/03 05:47:51;;;;;;;20.48;10.07;;;;;;;1.84;88.29;101002.50;5096138;28;20024;-61
2021/12/03 05:50:17;;;;;;;19.67;9.35;;;;;;;1.82;87.86;100996.31;5095864;28;20028;-62
2021/12/03 05:52:44;;;;;;;23.67;9.30;;;;;;;1.80;88.24;100995.34;5096060;28;20051;-62
2021/12/03 05:55:11;;;;;;;22.08;8.95;;;;;;;1.79;88.58;100996.16;5077848;28;20488;-61
2021/12/03 05:57:38;;;;;;;22.45;8.55;;;;;;;1.82;88.16;100990.22;5095811;28;20013;-61
2021/12/03 06:00:07;;;;;;;23.25;9.20;;;;;;;1.82;88.03;101005.84;5061188;28;20024;-62
2021/12/03 06:02:33;;;;;;;18.92;7.90;;;;;;;1.83;88.09;101005.00;5095618;28;20389;-61
2021/12/03 06:04:58;;;;;;;18.27;8.07;;;;;;;1.80;88.56;100999.66;5095709;28;20109;-61
2021/12/03 06:07:24;;;;;;;21.63;7.50;;;;;;;1.77;87.76;100982.16;5095709;28;20028;-61
2021/12/03 06:09:49;;;;;;;23.58;8.13;;;;;;;1.77;88.39;101000.41;5095681;28;20023;-62
2021/12/03 06:12:15;;;;;;;15.93;7.40;;;;;;;1.76;88.34;100988.22;5095537;28;20024;-64
2021/12/03 06:14:40;;;;;;;15.68;7.28;;;;;;;1.79;88.12;101001.34;5095668;28;20027;-62
2021/12/03 06:17:06;;;;;;;13.43;7.25;;;;;;;1.81;87.86;100991.03;5095490;28;20016;-61
2021/12/03 06:19:31;;;;;;;24.73;7.70;;;;;;;1.81;88.21;100997.13;5095502;28;20016;-62
2021/12/03 06:21:56;;;;;;;14.63;6.72;;;;;;;1.80;88.12;100978.81;5095156;28;20500;-61
2021/12/03 06:24:22;;;;;;;19.65;7.43;;;;;;;1.78;88.05;100983.94;5095426;28;20035;-61
2021/12/03 06:26:47;;;;;;;23.33;7.55;;;;;;;1.78;87.94;100983.94;5095396;28;20020;-63
2021/12/03 06:29:12;;;;;;;19.25;6.90;;;;;;;1.80;87.87;100989.22;5077066;28;20076;-63
2021/12/03 06:31:38;;;;;;;28.98;8.18;;;;;;;1.79;87.19;100990.94;5095173;28;20024;-62
2021/12/03 06:34:04;;;;;;;17.52;6.75;;;;;;;1.77;87.58;100982.16;5094759;28;20058;-61
2021/12/03 06:36:29;;;;;;;19.27;7.32;;;;;;;1.78;87.21;100975.25;5095118;28;20038;-62
2021/12/03 06:38:54;;;;;;;20.08;6.65;;;;;;;1.78;87.31;100977.84;5095141;28;20024;-61
2021/12/03 06:41:20;;;;;;;23.15;6.65;;;;;;;1.80;87.12;100974.50;5095078;28;20031;-61
2021/12/03 06:43:45;;;;;;;13.05;6.18;;;;;;;1.81;86.50;100972.78;5094898;28;20040;-62
2021/12/03 06:46:11;;;;;;;14.15;6.85;;;;;;;1.74;86.27;100972.47;5095128;28;20028;-62
2021/12/03 06:48:36;;;;;;;21.92;6.72;;;;;;;1.78;85.97;100970.03;5094896;28;20028;-62
2021/12/03 06:51:02;;;;;;;20.02;6.50;;;;;;;1.76;85.86;100972.56;5094991;28;20104;-62
2021/12/03 06:53:38;;;;;;;21.40;7.00;;;;;;;1.72;86.05;100973.25;5094726;28;20016;-61
2021/12/03 06:56:08;;;;;;;17.30;6.30;;;;;;;1.73;85.63;100975.03;5076673;28;20028;-61
2021/12/03 06:58:33;;;;;;;18.63;6.50;;;;;;;1.77;85.08;100989.09;5094647;28;20059;-61
2021/12/03 07:00:59;;;;;;;23.35;6.18;;;;;;;1.77;84.86;100983.88;5094550;28;20060;-61
2021/12/03 07:03:25;;;;;;;14.52;6.20;;;;;;;1.74;85.00;100988.13;5068300;28;20123;-61
2021/12/03 07:05:50;;;;;;;18.38;6.95;;;;;;;1.74;84.94;100984.63;5094520;28;20030;-61
2021/12/03 07:08:16;;;;;;;23.08;6.90;;;;;;;1.73;85.18;100981.13;5094768;28;20078;-61
2021/12/03 07:10:42;;;;;;;20.17;5.75;;;;;;;1.72;85.19;100973.25;5094484;28;20051;-61
2021/12/03 07:13:09;;;;;;;17.88;5.85;;;;;;;1.70;85.45;100975.75;5094458;28;20027;-61
2021/12/03 07:15:34;;;;;;;18.15;5.95;;;;;;;1.68;84.72;100976.53;5076365;28;20386;-61
2021/12/03 07:18:00;;;;;;;15.20;6.05;;;;;;;1.68;85.07;100980.03;5094387;28;20024;-62
2021/12/03 07:20:27;;;;;;;13.93;5.03;;;;;;;1.71;84.76;100974.03;5094492;28;20036;-62
2021/12/03 07:22:53;;;;;;;16.42;6.78;;;;;;;1.68;85.07;100971.31;5093699;28;20418;-61
2021/12/03 07:25:20;;;;;;;19.60;5.97;;;;;;;1.67;85.13;100967.81;5093830;28;20039;-61
2021/12/03 07:27:46;;;;;;;15.85;5.88;;;;;;;1.70;84.85;100962.72;5093661;28;20036;-61
2021/12/03 07:30:13;;;;;;;15.73;5.93;;;;;;;1.71;84.66;100953.19;5093846;28;20358;-62
2021/12/03 07:32:39;;;;;;;24.45;5.85;;;;;;;1.68;84.89;100950.47;5093767;28;20435;-61
2021/12/03 07:35:07;;;;;;;15.93;5.82;;;;;;;1.70;84.96;100946.22;5093542;28;20123;-62
2021/12/03 07:37:32;;;;;;;13.95;5.60;;;;;;;1.69;84.77;100952.25;5093240;28;20341;-61
2021/12/03 07:40:04;;;;;;;18.02;6.15;;;;;;;1.68;84.59;100955.69;5093295;28;20016;-61
2021/12/03 07:42:34;;;;;;;12.07;5.93;;;;;;;1.67;84.25;100967.81;5093253;28;20382;-62
2021/12/03 07:45:00;;;;;;;12.38;5.07;;;;;;;1.69;84.23;100962.69;5092555;28;20086;-61
2021/12/03 07:47:26;;;;;;;18.13;5.88;;;;;;;1.66;84.04;100962.50;5092694;28;20390;-62
2021/12/03 07:49:52;;;;;;;17.83;5.95;;;;;;;1.68;84.83;100966.09;5074150;28;20024;-62
2021/12/03 07:52:20;;;;;;;19.08;6.15;;;;;;;1.70;84.52;100957.53;5092547;28;20039;-61
2021/12/03 07:54:45;;;;;;;17.77;5.30;;;;;;;1.72;84.87;100957.63;5092641;28;20028;-62
2021/12/03 07:57:11;;;;;;;21.73;6.25;;;;;;;1.68;84.57;100963.50;5074869;28;20027;-62
2021/12/03 07:59:37;;;;;;;21.10;6.55;;;;;;;1.65;85.16;100963.34;5092810;28;20024;-61
2021/12/03 08:02:08;;;;;;;16.48;5.50;;;;;;;1.67;84.99;100965.22;5092953;28;20032;-63
2021/12/03 08:04:33;;;;;;;14.35;4.38;;;;;;;1.69;84.63;100963.56;5093093;28;20020;-61
2021/12/03 08:07:00;;;;;;;19.33;5.70;;;;;;;1.69;85.14;100966.16;5092795;28;20492;-61
2021/12/03 08:09:26;;;;;;;17.83;5.57;;;;;;;1.70;85.31;100967.06;5092644;28;20024;-61
2021/12/03 08:11:52;;;;;;;17.38;5.45;;;;;;;1.70;85.28;100949.72;5093000;28;20020;-63
2021/12/03 08:14:18;;;;;;;27.08;5.55;;;;;;;1.73;85.31;100959.41;5092607;28;20482;-61
2021/12/03 08:16:43;;;;;;;21.27;5.75;;;;;;;1.72;84.98;100950.69;5092808;28;20031;-62
2021/12/03 08:19:09;;;;;;;19.27;5.28;;;;;;;1.70;85.48;100951.44;5092643;28;20469;-61
2021/12/03 08:21:34;;;;;;;17.10;5.68;;;;;;;1.72;85.63;100963.72;5092336;28;20039;-61
2021/12/03 08:24:00;;;;;;;18.33;4.43;;;;;;;1.75;85.06;100949.94;5092272;28;20123;-61
2021/12/03 08:26:27;;;;;;;18.42;4.82;;;;;;;1.76;85.49;100956.94;5092413;28;20027;-63
2021/12/03 08:28:53;;;;;;;13.35;4.22;;;;;;;1.70;85.05;100934.09;5092745;28;20100;-63
2021/12/03 08:31:18;;;;;;;17.80;4.93;;;;;;;1.83;84.86;100955.50;5092546;28;20032;-63
2021/12/03 08:33:44;;;;;;;16.70;4.35;;;;;;;1.82;84.71;100944.19;5093315;28;20024;-63
2021/12/03 08:36:14;;;;;;;17.05;4.50;;;;;;;1.88;85.04;100952.28;5092435;28;20078;-64
2021/12/03 08:38:40;;;;;;;20.70;4.93;;;;;;;1.90;84.78;100950.66;5092618;28;20497;-63
2021/12/03 08:41:07;;;;;;;17.58;4.50;;;;;;;1.99;84.39;100950.22;5092269;28;20103;-64
2021/12/03 08:43:32;;;;;;;18.15;4.38;;;;;;;2.00;84.31;100941.56;5092441;28;20449;-63
2021/12/03 08:45:58;;;;;;;17.98;4.35;;;;;;;1.99;84.49;100943.28;5092485;28;20051;-63
2021/12/03 08:48:24;;;;;;;19.00;4.90;;;;;;;2.03;84.84;100940.81;5092426;28;20028;-63
2021/12/03 08:51:48;;;;;;;21.73;4.85;;;;;;;2.06;84.49;100961.81;5092200;28;20031;-64
2021/12/03 08:56:20;;;;;;;21.25;4.93;;;;;;;2.09;84.38;100943.69;5094649;28;20505;-64
2021/12/03 08:58:46;;;;;;;16.30;4.88;;;;;;;2.09;84.18;100941.09;5096694;28;20028;-64
2021/12/03 09:01:13;;;;;;;14.65;4.55;;;;;;;2.10;84.40;100924.63;5096583;28;20028;-64
2021/12/03 09:03:39;;;;;;;17.23;5.00;;;;;;;2.14;84.49;100923.94;5096161;28;20027;-64
2021/12/03 09:06:04;;;;;;;15.95;4.55;;;;;;;2.17;84.03;100924.97;5096363;28;20422;-64
2021/12/03 09:08:30;;;;;;;22.23;4.82;;;;;;;2.16;84.26;100925.81;5096183;28;20047;-62
2021/12/03 09:10:55;;;;;;;14.95;5.05;;;;;;;2.25;84.04;100926.22;5096443;28;20023;-62
2021/12/03 09:13:21;;;;;;;20.75;4.60;;;;;;;2.22;84.21;100928.69;5096287;28;20031;-64
2021/12/03 09:15:56;;;;;;;18.83;5.07;;;;;;;2.27;84.46;100931.53;5096335;28;20378;-64
2021/12/03 09:23:21;;;;;;;28.45;5.53;;;;;;;2.34;84.44;100936.19;5095762;28;20052;-64
2021/12/03 09:25:52;;;;;;;20.13;5.45;;;;;;;2.37;84.05;100917.19;5095967;28;20043;-63
2021/12/03 09:28:18;;;;;;;21.58;4.70;;;;;;;2.39;84.36;100905.97;5095913;28;20039;-62
2021/12/03 09:30:45;;;;;;;17.58;5.32;;;;;;;2.38;84.59;100909.41;5095848;28;20021;-62
2021/12/03 09:33:14;;;;;;;24.50;6.10;;;;;;;2.44;84.09;100921.81;5095829;28;20035;-62
2021/12/03 09:35:45;;;;;;;23.40;5.22;;;;;;;2.40;84.24;100914.69;5095831;28;20107;-63
2021/12/03 09:38:11;;;;;;;15.50;5.22;;;;;;;2.39;84.75;100924.22;5095889;28;20028;-64
2021/12/03 09:40:38;;;;;;;14.10;4.65;;;;;;;2.41;85.38;100913.91;5095535;28;20373;-64
2021/12/03 09:43:06;;;;;;;20.30;5.25;;;;;;;2.45;85.15;100913.22;5077888;28;20035;-63
2021/12/03 09:45:32;;;;;;;13.82;5.10;;;;;;;2.51;84.49;100911.75;5089827;28;20024;-64
2021/12/03 09:48:00;;;;;;;21.42;5.32;;;;;;;2.52;85.32;100915.25;5094898;28;20535;-64
2021/12/03 09:50:25;;;;;;;16.27;4.50;;;;;;;2.50;85.12;100898.66;5095485;28;20066;-64
2021/12/03 09:53:09;;;;;;;19.13;4.50;;;;;;;2.54;84.90;100894.47;5095250;28;20056;-64
2021/12/03 09:55:35;;;;;;;17.90;4.53;;;;;;;2.54;85.32;100903.19;5095236;28;20024;-64
2021/12/03 09:58:19;;;;;;;15.23;4.95;;;;;;;2.58;84.85;100910.31;5094778;28;20024;-64
2021/12/03 10:00:52;;;;;;;17.92;4.35;;;;;;;2.58;85.06;100884.22;5095429;28;20073;-64
2021/12/03 10:26:56;;;;;;;23.33;5.32;;;;;;;2.72;85.42;100848.28;5032812;28;20099;-64
2021/12/03 10:29:10;;;;;;;18.67;5.15;;;;;;;2.80;86.10;100852.13;5032068;28;20511;-64
2021/12/03 10:34:44;;;;;;;20.30;4.68;;;;;;;2.91;84.86;100829.97;4992887;28;20084;-62
2021/12/03 10:37:23;;;;;;;14.88;4.47;;;;;;;2.92;85.24;100829.13;4993202;28;20496;-64
2021/12/03 10:39:55;;;;;;;11.32;4.75;;;;;;;2.95;84.92;100813.59;4992792;28;20506;-64
2021/12/03 10:42:36;;;;;;;18.08;5.15;;;;;;;2.99;85.16;100798.94;4993893;28;20048;-63
2021/12/03 10:48:27;;;;;;;13.25;5.22;;;;;;;3.06;84.44;100782.72;4934768;29;20183;-63
2021/12/03 10:53:52;;;;;;;;;;;;;;;3.09;84.13;100777.63;4915989;29;20482;-64
2021/12/03 10:57:09;;;;;;;13.80;5.10;;;;;;;3.11;84.00;100781.16;4915553;29;19958;-63
2021/12/03 11:27:34;;;;;;;15.95;5.72;;;;;;;3.53;82.02;100715.75;5011732;28;20133;-63
2021/12/03 14:39:26;;;;;;;6.35;3.70;;;;;;;3.87;82.99;100489.59;5074346;28;20075;-64
2021/12/03 14:52:23;;;;;;;11.02;4.50;;;;;;;3.78;85.06;100489.28;5074429;28;20040;-64
2021/12/03 14:54:57;;;;;;;10.10;4.15;;;;;;;3.74;84.79;100481.34;5090832;28;20114;-64
2021/12/03 15:00:35;;;;;;;9.85;4.10;;;;;;;3.75;85.60;100487.44;5093958;28;19912;-63
2021/12/03 15:08:39;;;;;;;8.60;4.28;;;;;;;3.75;86.07;100506.63;5093890;28;20044;-63
2021/12/03 15:11:45;;;;;;;10.07;3.90;;;;;;;3.78;86.19;100481.44;5075474;28;20393;-63
2021/12/03 16:04:02;;;;;;;8.73;4.15;;;;;;;3.67;90.95;100436.66;5093611;28;20119;-63
2021/12/03 16:08:57;;;;;;;7.18;4.55;;;;;;;3.60;91.97;100425.16;5093605;28;20032;-63
2021/12/03 16:11:59;;;;;;;5.75;4.05;;;;;;;3.63;91.77;100420.00;5093506;28;20032;-63
2021/12/03 16:15:25;;;;;;;6.90;4.05;;;;;;;3.64;92.05;100428.72;5089727;28;20064;-64
2021/12/03 16:17:27;;;;;;;7.30;4.50;;;;;;;3.60;91.60;100414.72;5079602;28;20036;-65
2021/12/03 16:50:00;;;;;;;7.03;4.10;;;;;;;3.61;93.06;100392.97;5093113;28;20035;-64
2021/12/03 16:52:33;;;;;;;7.13;3.75;;;;;;;3.62;93.00;100399.06;5092485;28;20490;-64
2021/12/03 16:55:01;;;;;;;9.60;4.70;;;;;;;3.65;92.58;100410.50;5093006;28;20405;-64
2021/12/03 16:57:30;;;;;;;7.18;4.28;;;;;;;3.65;92.98;100380.88;5093003;28;20101;-64
2021/12/03 16:59:59;;;;;;;5.63;4.20;;;;;;;3.63;92.65;100385.16;5092857;28;20028;-66
2021/12/03 17:02:33;;;;;;;5.93;4.13;;;;;;;3.64;92.97;100382.63;5074705;28;20038;-65
2021/12/03 17:08:19;;;;;;;6.70;4.35;;;;;;;3.63;92.87;100385.16;5093146;28;20078;-65
2021/12/03 17:10:53;;;;;;;6.82;3.83;;;;;;;3.69;92.93;100387.97;5092273;28;20206;-65
2021/12/03 17:19:17;;;;;;;5.30;4.15;;;;;;;3.66;92.75;100380.94;5096731;28;20405;-64
2021/12/03 17:22:03;;;;;;;5.90;4.18;;;;;;;3.64;93.13;100381.69;5096493;28;20040;-64
2021/12/03 17:57:42;;;;;;;4.80;4.00;;;;;;;3.53;93.75;100279.50;5013824;28;20041;-63
2021/12/03 18:00:00;;;;;;;8.43;4.77;;;;;;;3.61;93.07;100287.59;5012534;28;20078;-63
2021/12/03 18:48:21;;;;;;;6.00;4.10;;;;;;;3.63;93.01;100265.88;5074857;28;20041;-64
2021/12/03 18:53:32;;;;;;;4.70;3.83;;;;;;;3.68;92.82;100266.91;5074713;28;20040;-63
2021/12/03 18:55:59;;;;;;;8.40;4.45;;;;;;;3.66;92.32;100258.13;5074421;28;20691;-63